Time;durP1;ratioP1;P1;durP2;ratioP2;P2;SDS_P1;SDS_P2;PMS_P1;PMS_P2;Temp;Humidity;BMP_temperature;BMP_pressure;BME280_temperature;BME280_humidity;BME280_pressure;Samples;Min_cycle;Max_cycle;Signal;HPM_P1;HPM_P2
2022/07/15 00:01:55;;;;;;;68.70;4.20;;;20.20;1.00;;;;;;5085252;28;20190;-81
2022/07/15 00:04:21;;;;;;;67.27;3.90;;;20.30;1.00;;;;;;5085250;28;20174;-81
2022/07/15 00:06:46;;;;;;;67.83;4.47;;;20.30;1.00;;;;;;5087427;28;20193;-81
2022/07/15 00:09:12;;;;;;;73.87;5.13;;;20.20;1.00;;;;;;5088878;28;20173;-81
2022/07/15 00:11:38;;;;;;;67.00;4.43;;;20.20;1.00;;;;;;5090022;28;20211;-81
2022/07/15 00:14:04;;;;;;;67.77;4.97;;;20.10;1.00;;;;;;5090395;28;20160;-81
2022/07/15 00:16:29;;;;;;;68.03;5.17;;;20.10;1.00;;;;;;5089635;28;20195;-80
2022/07/15 00:18:55;;;;;;;68.07;6.70;;;20.00;1.00;;;;;;5089496;28;20189;-81
2022/07/15 00:21:21;;;;;;;67.30;5.87;;;19.90;1.00;;;;;;5090474;28;20168;-81
2022/07/15 00:23:46;;;;;;;67.77;6.70;;;19.90;1.00;;;;;;5091445;28;20176;-81
2022/07/15 00:26:12;;;;;;;69.50;7.40;;;19.80;1.00;;;;;;5091395;28;20190;-81
2022/07/15 00:28:38;;;;;;;71.03;8.03;;;19.90;1.00;;;;;;5071182;28;20182;-81
2022/07/15 00:31:04;;;;;;;69.03;7.60;;;19.90;1.00;;;;;;5089901;28;20166;-81
2022/07/15 00:33:29;;;;;;;74.30;8.70;;;19.90;1.00;;;;;;5089203;28;20310;-81
2022/07/15 00:35:55;;;;;;;68.50;8.73;;;19.90;1.00;;;;;;5089428;28;20253;-81
2022/07/15 00:38:21;;;;;;;70.20;9.20;;;19.90;1.00;;;;;;5070567;28;20254;-81
2022/07/15 00:40:49;;;;;;;69.17;9.17;;;19.80;1.00;;;;;;5090321;28;20407;-81
2022/07/15 00:43:16;;;;;;;70.57;10.90;;;19.80;1.00;;;;;;5090064;28;20425;-81
2022/07/15 00:45:45;;;;;;;69.57;9.90;;;19.70;1.00;;;;;;5089382;28;20434;-81
2022/07/15 00:48:11;;;;;;;71.17;13.10;;;19.70;1.00;;;;;;5070990;28;20440;-81
2022/07/15 00:50:37;;;;;;;69.67;11.83;;;19.70;1.00;;;;;;5090161;28;20391;-81
2022/07/15 00:53:12;;;;;;;68.87;11.20;;;19.50;1.00;;;;;;5089977;28;20164;-81
2022/07/15 00:55:41;;;;;;;69.60;11.40;;;19.50;1.00;;;;;;5089828;28;20148;-81
2022/07/15 00:58:10;;;;;;;69.77;10.20;;;19.40;1.00;;;;;;5090449;28;20434;-81
2022/07/15 01:00:36;;;;;;;69.50;10.07;;;19.30;1.00;;;;;;5090471;28;20410;-81
2022/07/15 01:03:02;;;;;;;69.47;8.67;;;19.30;1.00;;;;;;5090244;28;20432;-81
2022/07/15 01:05:29;;;;;;;72.33;7.93;;;19.30;1.00;;;;;;5089517;28;20167;-81
2022/07/15 01:07:55;;;;;;;69.97;7.40;;;19.40;1.00;;;;;;5089354;28;20420;-81
2022/07/15 01:10:24;;;;;;;68.93;8.43;;;19.40;1.00;;;;;;5089983;28;20396;-81
2022/07/15 01:12:50;;;;;;;71.27;8.50;;;19.50;1.00;;;;;;5071717;28;20166;-81
2022/07/15 01:15:17;;;;;;;69.53;7.60;;;19.50;1.00;;;;;;5089466;28;20410;-81
2022/07/15 01:17:45;;;;;;;70.03;7.67;;;19.50;1.00;;;;;;5089412;28;20425;-81
2022/07/15 01:20:13;;;;;;;68.40;7.37;;;19.60;1.00;;;;;;5089559;28;20407;-81
2022/07/15 01:22:39;;;;;;;68.87;5.83;;;19.50;1.00;;;;;;5089754;28;20387;-81
2022/07/15 01:25:05;;;;;;;68.37;7.40;;;19.60;1.00;;;;;;5089194;28;20407;-81
2022/07/15 01:27:32;;;;;;;70.43;6.30;;;19.50;1.00;;;;;;5088893;28;20204;-81
2022/07/15 01:29:59;;;;;;;68.50;6.23;;;19.50;1.00;;;;;;5089381;28;20447;-81
2022/07/15 01:32:25;;;;;;;67.20;5.17;;;19.50;1.60;;;;;;5070522;28;20481;-81
2022/07/15 01:34:51;;;;;;;67.53;4.90;;;19.40;2.00;;;;;;5089443;28;20428;-81
2022/07/15 01:37:17;;;;;;;71.03;4.80;;;19.50;2.60;;;;;;5088503;28;20435;-81
2022/07/15 01:39:43;;;;;;;68.50;4.90;;;19.50;3.00;;;;;;5070918;28;20168;-81
2022/07/15 01:42:09;;;;;;;69.57;4.63;;;19.50;4.80;;;;;;5088505;28;20408;-81
2022/07/15 01:44:35;;;;;;;68.50;3.40;;;19.30;6.30;;;;;;5088972;28;20419;-81
2022/07/15 01:47:01;;;;;;;68.50;3.70;;;19.40;7.00;;;;;;5088132;28;20438;-81
2022/07/15 01:49:31;;;;;;;66.80;3.60;;;19.30;8.70;;;;;;5088828;28;20421;-81
2022/07/15 01:51:58;;;;;;;66.00;3.37;;;19.30;9.30;;;;;;5071200;28;20406;-81
2022/07/15 01:54:26;;;;;;;67.00;3.57;;;19.30;11.40;;;;;;5088317;28;20458;-81
2022/07/15 01:56:53;;;;;;;68.63;3.77;;;19.20;12.70;;;;;;5088169;28;20398;-81
2022/07/15 01:59:22;;;;;;;67.47;4.30;;;19.20;13.80;;;;;;5087665;28;20474;-81
2022/07/15 02:01:48;;;;;;;68.03;4.40;;;19.10;16.30;;;;;;5088173;28;20470;-81
2022/07/15 02:04:14;;;;;;;68.20;3.67;;;19.10;15.80;;;;;;5087806;28;20433;-81
2022/07/15 02:06:40;;;;;;;67.00;4.03;;;18.90;18.80;;;;;;5087724;28;20438;-81
2022/07/15 02:09:07;;;;;;;69.07;4.57;;;18.90;18.80;;;;;;5088416;28;20188;-81
2022/07/15 02:11:33;;;;;;;66.47;4.67;;;19.00;18.90;;;;;;5087476;28;20418;-81
2022/07/15 02:13:59;;;;;;;68.70;4.93;;;18.90;18.70;;;;;;5088378;28;20955;-81
2022/07/15 02:16:32;;;;;;;66.90;4.53;;;19.00;18.90;;;;;;5087638;28;20395;-81
2022/07/15 02:18:58;;;;;;;69.43;4.27;;;19.00;19.00;;;;;;5088809;28;20437;-81
2022/07/15 02:21:26;;;;;;;69.20;5.53;;;19.00;18.90;;;;;;5087657;28;20403;-81
2022/07/15 02:23:52;;;;;;;68.07;5.90;;;18.90;21.40;;;;;;5069868;28;20411;-81
2022/07/15 02:26:18;;;;;;;69.60;8.47;;;18.90;21.60;;;;;;5088671;28;20536;-81
2022/07/15 02:28:44;;;;;;;70.70;12.40;;;18.80;24.60;;;;;;5087111;28;20429;-81
2022/07/15 02:31:11;;;;;;;69.60;12.13;;;18.70;27.30;;;;;;5088348;28;20186;-81
2022/07/15 02:33:37;;;;;;;73.60;14.20;;;18.70;28.60;;;;;;5087403;28;20160;-81
2022/07/15 02:36:03;;;;;;;75.50;19.13;;;18.80;29.80;;;;;;5087892;28;20405;-80
2022/07/15 02:38:29;;;;;;;71.40;16.93;;;18.80;30.60;;;;;;5087506;28;20433;-81
2022/07/15 02:40:55;;;;;;;71.73;19.80;;;18.80;31.70;;;;;;5087696;28;20213;-81
2022/07/15 02:43:21;;;;;;;70.77;15.03;;;18.80;32.70;;;;;;5087709;28;20160;-81
2022/07/15 02:45:47;;;;;;;72.27;19.17;;;18.80;32.20;;;;;;5069447;28;20196;-81
2022/07/15 02:48:15;;;;;;;73.87;19.60;;;18.80;34.10;;;;;;5087507;28;20429;-81
2022/07/15 02:50:41;;;;;;;71.93;17.90;;;18.80;32.60;;;;;;5069502;28;20417;-81
2022/07/15 02:53:07;;;;;;;71.67;17.77;;;18.80;33.50;;;;;;5088130;28;20428;-81
2022/07/15 02:55:33;;;;;;;79.53;18.20;;;18.80;33.40;;;;;;5086961;28;20463;-81
2022/07/15 02:57:58;;;;;;;73.07;16.97;;;18.80;32.70;;;;;;5087142;28;20428;-81
2022/07/15 03:00:24;;;;;;;74.97;16.70;;;18.80;33.00;;;;;;5088100;28;20616;-81
2022/07/15 03:02:50;;;;;;;73.00;19.03;;;18.80;33.10;;;;;;5087888;28;20183;-81
2022/07/15 03:05:17;;;;;;;72.20;20.17;;;18.70;34.00;;;;;;5087813;28;20191;-81
2022/07/15 03:07:44;;;;;;;73.27;22.90;;;18.80;33.30;;;;;;5086535;28;20191;-81
2022/07/15 03:10:11;;;;;;;77.50;16.40;;;18.80;33.70;;;;;;5087145;28;20400;-81
2022/07/15 03:12:37;;;;;;;75.60;18.40;;;18.80;33.60;;;;;;5087513;28;20402;-81
2022/07/15 03:15:03;;;;;;;73.63;18.13;;;18.80;36.10;;;;;;5087282;28;20398;-81
2022/07/15 03:17:29;;;;;;;73.37;18.60;;;18.80;37.90;;;;;;5088086;28;20415;-81
2022/07/15 03:19:55;;;;;;;76.13;20.77;;;18.80;36.90;;;;;;5087041;28;20486;-81
2022/07/15 03:22:25;;;;;;;74.60;17.30;;;18.70;38.20;;;;;;5087851;28;20163;-81
2022/07/15 03:24:51;;;;;;;77.37;20.50;;;18.80;37.70;;;;;;5087429;28;20383;-81
2022/07/15 03:27:17;;;;;;;72.43;16.27;;;18.80;37.40;;;;;;5086937;28;20507;-81
2022/07/15 03:29:43;;;;;;;72.67;16.67;;;18.80;37.60;;;;;;5087477;28;20400;-81
2022/07/15 03:32:10;;;;;;;76.60;17.23;;;18.80;37.40;;;;;;5086450;28;20428;-81
2022/07/15 03:34:37;;;;;;;71.33;16.40;;;18.80;37.90;;;;;;5069469;28;20171;-81
2022/07/15 03:37:02;;;;;;;75.60;19.63;;;18.90;36.70;;;;;;5087208;28;20436;-81
2022/07/15 03:39:28;;;;;;;72.80;14.83;;;18.90;39.10;;;;;;5086932;28;20418;-81
2022/07/15 03:41:54;;;;;;;71.37;12.87;;;18.70;42.20;;;;;;5088396;28;20164;-81
2022/07/15 03:44:19;;;;;;;71.47;14.80;;;18.80;40.00;;;;;;5090365;28;20167;-81
2022/07/15 03:46:45;;;;;;;71.93;15.77;;;18.80;40.00;;;;;;5090831;28;20192;-80
2022/07/15 03:49:13;;;;;;;71.97;14.07;;;18.70;41.90;;;;;;5090991;28;20164;-81
2022/07/15 03:51:38;;;;;;;71.23;13.60;;;18.70;42.80;;;;;;5091139;28;20220;-81
2022/07/15 03:54:04;;;;;;;69.10;12.43;;;18.60;46.60;;;;;;5091154;28;20432;-81
2022/07/15 03:56:30;;;;;;;71.83;10.40;;;18.60;46.50;;;;;;5090950;28;20168;-81
2022/07/15 03:58:56;;;;;;;70.90;11.40;;;18.70;45.20;;;;;;5090520;28;20422;-81
2022/07/15 04:01:23;;;;;;;69.47;12.37;;;18.80;44.10;;;;;;5091077;28;20408;-81
2022/07/15 04:03:50;;;;;;;72.00;9.93;;;18.80;44.60;;;;;;5090941;28;20402;-81
2022/07/15 04:06:16;;;;;;;68.67;11.07;;;18.80;42.80;;;;;;5090734;28;20438;-81
2022/07/15 04:08:43;;;;;;;74.53;10.90;;;18.80;44.30;;;;;;5090831;28;20438;-81
2022/07/15 04:11:09;;;;;;;70.80;9.83;;;18.80;43.10;;;;;;5091132;28;20437;-81
2022/07/15 04:13:35;;;;;;;70.13;11.00;;;18.80;44.20;;;;;;5091087;28;20403;-81
2022/07/15 04:16:00;;;;;;;73.97;11.40;;;18.90;42.40;;;;;;5072605;28;20406;-81
2022/07/15 04:18:26;;;;;;;75.57;9.13;;;18.70;42.20;;;;;;5089669;28;20191;-80
2022/07/15 04:20:52;;;;;;;72.57;11.10;;;18.60;44.20;;;;;;5090125;28;20246;-81
2022/07/15 04:23:17;;;;;;;73.17;11.80;;;18.60;43.20;;;;;;5089839;28;20169;-81
2022/07/15 04:25:44;;;;;;;72.80;10.73;;;18.70;40.90;;;;;;5089907;28;20195;-81
2022/07/15 04:28:10;;;;;;;71.10;13.60;;;18.80;40.60;;;;;;5072339;28;20191;-81
2022/07/15 04:30:36;;;;;;;72.93;12.93;;;18.80;38.70;;;;;;5090335;28;20407;-81
2022/07/15 04:33:01;;;;;;;70.50;12.00;;;18.80;38.90;;;;;;5089858;28;20180;-80
2022/07/15 04:35:27;;;;;;;71.10;10.63;;;18.80;40.10;;;;;;5089565;28;20164;-81
2022/07/15 04:37:53;;;;;;;73.10;9.97;;;18.70;40.40;;;;;;5089481;28;20438;-81
2022/07/15 04:40:20;;;;;;;69.70;12.33;;;18.70;40.60;;;;;;5089367;28;20789;-81
2022/07/15 04:42:46;;;;;;;70.37;13.37;;;18.80;40.40;;;;;;5089082;28;20422;-81
2022/07/15 04:45:12;;;;;;;71.07;12.40;;;18.80;39.70;;;;;;5089336;28;20395;-81
2022/07/15 04:47:37;;;;;;;70.17;13.20;;;18.80;40.30;;;;;;5089445;28;20267;-81
2022/07/15 04:52:51;;;;;;;70.07;12.07;;;18.90;38.90;;;;;;5089413;28;20151;-81
2022/07/15 04:55:17;;;;;;;77.03;13.80;;;18.90;37.80;;;;;;5089048;28;20395;-81
2022/07/15 04:57:43;;;;;;;72.73;12.40;;;18.90;36.90;;;;;;5089260;28;20454;-81
2022/07/15 05:00:09;;;;;;;70.40;13.23;;;18.90;37.10;;;;;;5089972;28;20220;-81
2022/07/15 05:02:35;;;;;;;69.50;9.30;;;18.80;37.90;;;;;;5089330;28;20168;-81
2022/07/15 05:05:01;;;;;;;72.17;9.80;;;18.80;40.00;;;;;;5089020;28;20394;-81
2022/07/15 05:07:27;;;;;;;68.03;9.53;;;18.70;41.70;;;;;;5088628;28;20481;-81
2022/07/15 05:09:52;;;;;;;70.97;9.57;;;18.80;41.20;;;;;;5088292;28;20193;-81
2022/07/15 05:12:18;;;;;;;70.90;9.30;;;18.80;39.60;;;;;;5087951;28;20399;-81
2022/07/15 05:14:44;;;;;;;71.20;8.87;;;18.70;40.00;;;;;;5088781;28;20247;-81
2022/07/15 05:17:10;;;;;;;69.67;8.13;;;18.80;40.30;;;;;;5089107;28;20422;-81
2022/07/15 05:19:36;;;;;;;70.40;10.13;;;18.80;38.70;;;;;;5089561;28;20163;-81
2022/07/15 05:22:02;;;;;;;74.97;9.80;;;18.80;39.60;;;;;;5091803;28;20399;-81
2022/07/15 05:24:28;;;;;;;74.90;9.63;;;18.80;39.40;;;;;;5090902;28;20168;-81
2022/07/15 05:26:54;;;;;;;68.27;7.53;;;18.70;40.00;;;;;;5091916;28;20457;-81
2022/07/15 05:29:23;;;;;;;70.57;7.67;;;18.60;40.50;;;;;;5091272;28;20477;-81
2022/07/15 05:31:49;;;;;;;70.20;9.27;;;18.60;40.70;;;;;;5092969;28;20218;-81
2022/07/15 05:34:15;;;;;;;68.67;8.87;;;18.70;38.60;;;;;;5092296;28;20402;-81
2022/07/15 05:36:41;;;;;;;68.20;8.33;;;18.80;38.20;;;;;;5091802;28;20444;-80
2022/07/15 05:39:07;;;;;;;69.87;10.33;;;18.70;38.30;;;;;;5088935;28;20494;-81
2022/07/15 05:41:33;;;;;;;72.73;11.60;;;18.80;36.60;;;;;;5091422;28;20198;-81
2022/07/15 05:43:59;;;;;;;73.10;12.83;;;18.80;36.30;;;;;;5089304;28;20893;-81
2022/07/15 05:46:25;;;;;;;71.73;11.90;;;18.90;35.50;;;;;;5091850;28;20446;-81
2022/07/15 05:48:51;;;;;;;74.63;15.30;;;18.90;34.30;;;;;;5091511;28;20422;-80
2022/07/15 05:51:17;;;;;;;69.87;11.57;;;19.00;33.90;;;;;;5090526;28;20155;-80
2022/07/15 05:53:43;;;;;;;72.67;13.17;;;19.00;32.50;;;;;;5089687;28;20425;-81
2022/07/15 05:56:09;;;;;;;72.67;14.23;;;19.00;32.30;;;;;;5088019;28;20414;-80
2022/07/15 05:58:35;;;;;;;70.17;12.67;;;19.00;32.70;;;;;;5088430;28;20195;-81
2022/07/15 06:01:00;;;;;;;71.57;13.77;;;18.80;35.10;;;;;;5088724;28;20236;-80
2022/07/15 06:03:26;;;;;;;72.17;13.77;;;19.00;35.30;;;;;;5089896;28;20387;-81
2022/07/15 06:05:52;;;;;;;71.20;11.47;;;19.00;32.90;;;;;;5089458;28;20195;-81
2022/07/15 06:08:18;;;;;;;69.50;10.80;;;18.90;35.10;;;;;;5088796;28;20215;-81
2022/07/15 06:10:43;;;;;;;70.17;10.17;;;18.80;36.10;;;;;;5088492;28;20168;-81
2022/07/15 06:13:09;;;;;;;70.00;9.30;;;18.70;37.20;;;;;;5088521;28;20164;-80
2022/07/15 06:15:36;;;;;;;69.93;9.33;;;18.80;38.00;;;;;;5087549;28;20165;-80
2022/07/15 06:18:02;;;;;;;68.90;9.83;;;18.80;37.50;;;;;;5070785;28;20430;-81
2022/07/15 06:20:28;;;;;;;73.40;11.00;;;18.90;37.00;;;;;;5088264;28;20428;-81
2022/07/15 06:22:54;;;;;;;70.80;11.07;;;18.90;36.20;;;;;;5088451;28;20430;-81
2022/07/15 06:25:20;;;;;;;74.77;9.30;;;18.70;37.30;;;;;;5088430;28;20413;-81
2022/07/15 06:27:46;;;;;;;68.47;7.30;;;18.80;37.30;;;;;;5070792;28;20210;-81
2022/07/15 06:30:13;;;;;;;69.27;7.43;;;18.60;41.50;;;;;;5088500;28;20484;-81
2022/07/15 06:32:39;;;;;;;67.47;7.27;;;18.40;44.30;;;;;;5087993;28;20434;-80
2022/07/15 06:35:05;;;;;;;72.33;7.17;;;18.40;45.70;;;;;;5084048;28;20762;-81
2022/07/15 06:37:32;;;;;;;68.27;6.87;;;18.40;46.40;;;;;;5083909;28;20199;-80
2022/07/15 06:39:57;;;;;;;69.50;7.53;;;18.50;44.40;;;;;;5085714;28;20426;-80
2022/07/15 06:42:23;;;;;;;68.17;7.60;;;18.70;42.10;;;;;;5085821;28;20456;-81
2022/07/15 06:44:49;;;;;;;72.53;8.40;;;18.80;38.10;;;;;;5088359;28;20202;-81
2022/07/15 06:47:15;;;;;;;69.63;9.97;;;18.70;37.00;;;;;;5088863;28;20206;-81
2022/07/15 06:49:41;;;;;;;69.10;8.53;;;18.70;35.30;;;;;;5089150;28;20159;-81
2022/07/15 06:52:07;;;;;;;71.13;11.90;;;18.70;35.80;;;;;;5088279;28;20414;-81
2022/07/15 06:54:33;;;;;;;70.00;10.13;;;18.70;33.50;;;;;;5088291;28;20237;-81
2022/07/15 06:56:59;;;;;;;76.30;11.70;;;18.80;35.00;;;;;;5088022;28;20406;-80
2022/07/15 06:59:25;;;;;;;73.47;13.97;;;18.80;34.50;;;;;;5088653;28;20189;-80
2022/07/15 07:01:52;;;;;;;71.27;12.13;;;18.90;32.80;;;;;;5067880;28;20410;-78
2022/07/15 07:04:18;;;;;;;73.07;14.33;;;18.90;31.40;;;;;;5084339;28;20411;-79
2022/07/15 07:06:44;;;;;;;71.87;11.77;;;18.90;32.10;;;;;;5080950;28;20446;-79
2022/07/15 07:09:11;;;;;;;72.70;10.20;;;18.90;30.10;;;;;;5082202;28;20395;-77
2022/07/15 07:11:37;;;;;;;72.00;9.50;;;18.70;33.10;;;;;;5086132;28;20428;-78
2022/07/15 07:14:03;;;;;;;73.00;14.27;;;18.80;30.60;;;;;;5085171;28;20426;-81
2022/07/15 07:16:29;;;;;;;72.17;10.83;;;18.90;30.00;;;;;;5090850;28;20413;-80
2022/07/15 07:18:55;;;;;;;72.70;12.50;;;18.60;18.00;;;;;;5073916;28;20204;-80
2022/07/15 07:21:20;;;;;;;71.23;11.80;;;18.60;23.80;;;;;;5091656;28;20413;-80
2022/07/15 07:23:47;;;;;;;77.30;12.07;;;18.70;22.30;;;;;;5092758;28;20517;-80
2022/07/15 07:26:14;;;;;;;70.70;7.90;;;18.80;19.70;;;;;;5072279;28;20206;-80
2022/07/15 07:28:40;;;;;;;69.57;7.60;;;18.80;15.50;;;;;;5073959;28;20426;-80
2022/07/15 07:31:11;;;;;;;71.40;7.80;;;18.80;15.50;;;;;;5090535;28;20416;-80
2022/07/15 07:33:37;;;;;;;70.97;10.10;;;18.70;17.00;;;;;;5091157;28;20171;-80
2022/07/15 07:36:04;;;;;;;73.87;7.57;;;18.60;18.20;;;;;;5090019;28;20394;-80
2022/07/15 07:38:34;;;;;;;72.73;7.10;;;18.80;16.80;;;;;;5090875;28;20441;-80
2022/07/15 07:41:00;;;;;;;70.80;6.67;;;18.90;14.50;;;;;;5089575;28;20403;-80
2022/07/15 07:43:26;;;;;;;69.03;5.57;;;18.90;13.40;;;;;;5091148;28;20421;-80
2022/07/15 07:45:51;;;;;;;72.13;6.00;;;19.00;12.20;;;;;;5090151;28;20439;-80
2022/07/15 07:48:17;;;;;;;69.57;5.00;;;19.00;10.10;;;;;;5090806;28;20187;-80
2022/07/15 07:50:44;;;;;;;70.60;4.77;;;19.10;8.00;;;;;;5073180;28;20232;-80
2022/07/15 07:53:10;;;;;;;69.00;4.70;;;19.00;9.30;;;;;;5090599;28;20814;-80
2022/07/15 07:55:36;;;;;;;68.20;5.00;;;18.90;1.00;;;;;;5090112;28;20407;-80
2022/07/15 07:58:02;;;;;;;67.93;4.73;;;18.80;1.00;;;;;;5090501;28;20425;-79
2022/07/15 08:00:29;;;;;;;68.40;4.93;;;18.80;1.00;;;;;;5089680;28;20399;-80
2022/07/15 08:02:57;;;;;;;68.50;5.33;;;18.80;1.00;;;;;;5157435;22;20491;-80
2022/07/15 08:05:24;;;;;;;71.10;5.70;;;18.90;1.00;;;;;;5090329;28;20424;-80
2022/07/15 08:07:50;;;;;;;69.67;5.70;;;18.90;1.00;;;;;;5090365;28;20455;-80
2022/07/15 08:10:19;;;;;;;69.27;5.80;;;19.00;1.00;;;;;;5092275;28;20399;-80
2022/07/15 08:12:45;;;;;;;68.30;5.17;;;18.90;1.00;;;;;;5092385;28;20394;-80
2022/07/15 08:15:11;;;;;;;69.67;5.10;;;18.90;1.00;;;;;;5091562;28;20401;-80
2022/07/15 08:17:38;;;;;;;69.10;4.80;;;19.00;1.00;;;;;;5090766;28;20414;-80
2022/07/15 08:20:08;;;;;;;71.17;4.67;;;19.20;1.00;;;;;;5091593;28;20403;-80
2022/07/15 08:22:35;;;;;;;67.80;5.03;;;19.20;1.00;;;;;;5092388;28;20386;-81
2022/07/15 08:25:02;;;;;;;69.47;4.40;;;19.40;1.00;;;;;;5092759;28;20401;-80
2022/07/15 08:27:27;;;;;;;71.67;5.83;;;19.50;1.00;;;;;;5089271;28;20457;-80
2022/07/15 08:29:53;;;;;;;66.27;3.37;;;19.50;1.00;;;;;;5090023;28;20403;-80
2022/07/15 08:32:19;;;;;;;68.30;4.10;;;19.60;1.00;;;;;;5089084;28;20239;-80
2022/07/15 08:34:47;;;;;;;66.30;3.70;;;19.80;1.00;;;;;;5091395;28;20167;-80
2022/07/15 08:37:13;;;;;;;67.07;2.80;;;19.90;1.00;;;;;;5090384;28;20426;-80
2022/07/15 08:39:39;;;;;;;66.97;3.13;;;20.10;1.00;;;;;;5090896;28;20421;-80
2022/07/15 08:42:06;;;;;;;66.07;2.83;;;20.20;1.00;;;;;;5090014;28;20433;-80
2022/07/15 08:44:32;;;;;;;71.93;3.30;;;20.00;1.00;;;;;;5088595;28;20439;-80
2022/07/15 08:47:02;;;;;;;68.13;3.23;;;20.20;1.00;;;;;;5091045;28;20458;-80
2022/07/15 08:49:31;;;;;;;65.90;2.97;;;20.20;1.00;;;;;;5091737;28;20437;-80
2022/07/15 08:51:59;;;;;;;66.23;3.00;;;20.20;1.00;;;;;;5089665;28;20423;-80
2022/07/15 08:54:26;;;;;;;66.80;3.17;;;20.30;1.00;;;;;;5089859;28;20418;-81
2022/07/15 08:56:52;;;;;;;65.93;2.70;;;20.30;1.00;;;;;;5089153;28;20481;-80
2022/07/15 08:59:17;;;;;;;66.63;2.93;;;20.30;1.00;;;;;;5090704;28;20456;-80
2022/07/15 09:01:45;;;;;;;68.87;2.57;;;20.30;1.00;;;;;;5092064;28;20171;-81
2022/07/15 09:04:12;;;;;;;65.40;2.10;;;20.40;1.00;;;;;;5073651;28;20199;-80
2022/07/15 09:06:49;;;;;;;67.27;3.87;;;20.40;1.00;;;;;;5092206;28;20441;-81
2022/07/15 09:09:18;;;;;;;67.70;3.83;;;20.80;1.00;;;;;;5088943;28;20460;-80
2022/07/15 09:11:52;;;;;;;71.87;5.93;;;21.00;1.00;;;;;;5090902;28;20391;-81
2022/07/15 09:14:19;;;;;;;67.97;4.90;;;21.20;1.00;;;;;;5089703;28;20875;-81
2022/07/15 09:16:46;;;;;;;68.63;4.90;;;21.30;1.00;;;;;;5089162;28;20401;-79
2022/07/15 09:19:11;;;;;;;68.37;5.17;;;21.20;1.00;;;;;;5088703;28;20438;-81
2022/07/15 09:21:42;;;;;;;68.20;6.53;;;21.00;1.00;;;;;;5089114;28;20401;-81
2022/07/15 09:24:21;;;;;;;71.77;6.53;;;21.00;1.00;;;;;;5089102;28;20147;-81
2022/07/15 09:26:58;;;;;;;67.43;6.57;;;21.00;1.00;;;;;;5085768;28;20515;-80
2022/07/15 09:38:00;;;;;;;67.90;5.27;;;20.80;1.00;;;;;;5092037;28;20425;-81
2022/07/15 09:40:26;;;;;;;70.20;8.23;;;21.00;1.00;;;;;;5091827;28;20405;-81
2022/07/15 09:43:05;;;;;;;68.57;8.03;;;21.10;1.00;;;;;;5090674;28;20399;-81
2022/07/15 09:45:32;;;;;;;68.27;8.27;;;21.10;1.00;;;;;;5091351;28;20441;-82
2022/07/15 09:48:14;;;;;;;69.53;8.60;;;21.10;1.00;;;;;;5091966;28;20451;-81
2022/07/15 09:50:40;;;;;;;67.67;7.77;;;21.20;1.00;;;;;;5090951;28;20387;-81
2022/07/15 09:53:13;;;;;;;70.60;7.80;;;21.10;1.00;;;;;;5092072;28;20398;-81
2022/07/15 09:55:40;;;;;;;70.97;9.80;;;21.20;1.00;;;;;;5089190;28;20455;-81
2022/07/15 09:58:08;;;;;;;69.73;8.77;;;21.50;1.00;;;;;;5091425;28;20428;-81
2022/07/15 10:00:34;;;;;;;70.47;8.17;;;21.90;1.00;;;;;;5089419;28;20387;-81
2022/07/15 10:03:02;;;;;;;69.30;6.03;;;22.20;1.00;;;;;;5089100;28;20429;-81
2022/07/15 10:05:28;;;;;;;70.90;3.17;;;22.30;1.00;;;;;;5089572;28;20819;-81
2022/07/15 10:07:56;;;;;;;68.77;4.60;;;22.50;1.00;;;;;;5089920;28;20458;-81
2022/07/15 10:10:23;;;;;;;68.07;4.17;;;22.70;1.00;;;;;;5089104;28;20410;-80
2022/07/15 10:13:13;;;;;;;69.47;4.70;;;22.80;1.00;;;;;;5087414;28;20436;-81
2022/07/15 10:15:45;;;;;;;70.20;8.70;;;22.10;1.00;;;;;;5088502;28;20417;-81
2022/07/15 10:18:31;;;;;;;67.17;5.53;;;22.10;1.00;;;;;;5088691;28;20426;-81
2022/07/15 10:21:11;;;;;;;69.67;6.50;;;21.80;1.00;;;;;;5087393;28;20398;-81
2022/07/15 10:24:19;;;;;;;66.47;3.27;;;22.00;1.00;;;;;;5088337;28;20387;-80
2022/07/15 10:26:56;;;;;;;67.10;2.80;;;22.40;1.00;;;;;;5028431;28;20467;-80
2022/07/15 10:29:22;;;;;;;67.37;2.43;;;22.40;1.00;;;;;;5081462;28;20414;-81
2022/07/15 10:31:57;;;;;;;67.17;2.13;;;22.50;1.00;;;;;;5089419;28;20482;-81
2022/07/15 10:34:23;;;;;;;66.27;2.57;;;22.40;1.00;;;;;;5088576;28;20408;-81
2022/07/15 10:36:57;;;;;;;68.30;2.57;;;22.30;1.00;;;;;;5089848;28;20781;-81
2022/07/15 10:39:28;;;;;;;69.70;2.57;;;22.20;1.00;;;;;;5090169;28;20490;-81
2022/07/15 10:42:03;;;;;;;69.37;2.30;;;22.10;1.00;;;;;;5088515;28;20386;-81
2022/07/15 10:44:34;;;;;;;66.27;2.30;;;22.10;1.00;;;;;;5088576;28;20382;-81
2022/07/15 10:47:12;;;;;;;67.20;2.40;;;22.00;1.00;;;;;;5088520;28;20863;-81
2022/07/15 10:49:39;;;;;;;66.20;2.40;;;22.00;1.00;;;;;;5088805;28;20424;-81
2022/07/15 10:52:22;;;;;;;66.07;3.43;;;21.60;1.00;;;;;;5088441;28;20505;-81
2022/07/15 10:54:55;;;;;;;67.10;2.80;;;21.50;1.00;;;;;;5091147;28;20398;-81
2022/07/15 10:57:46;;;;;;;67.83;2.93;;;21.70;1.00;;;;;;5088224;28;20418;-81
2022/07/15 11:00:15;;;;;;;65.77;2.40;;;22.00;1.00;;;;;;5089041;28;20422;-81
2022/07/15 11:03:12;;;;;;;65.80;2.80;;;22.40;1.00;;;;;;5089204;28;20430;-81
2022/07/15 11:05:58;;;;;;;66.20;1.90;;;22.80;1.00;;;;;;5087845;28;20820;-80
2022/07/15 11:08:36;;;;;;;67.27;2.27;;;23.50;1.00;;;;;;5087682;28;20440;-81
2022/07/15 11:11:44;;;;;;;65.10;2.10;;;24.10;1.00;;;;;;5087804;28;20403;-81
2022/07/15 11:14:48;;;;;;;67.57;2.60;;;24.60;1.00;;;;;;5068128;28;20432;-81
2022/07/15 11:17:19;;;;;;;67.90;2.90;;;24.60;1.00;;;;;;5089328;28;20430;-81
2022/07/15 11:19:50;;;;;;;65.83;2.30;;;24.10;1.00;;;;;;5087477;28;20409;-81
2022/07/15 11:22:20;;;;;;;67.67;2.50;;;23.70;1.00;;;;;;5087045;28;20398;-81
2022/07/15 11:24:46;;;;;;;66.90;2.73;;;23.40;1.00;;;;;;5088200;28;20410;-81
2022/07/15 11:27:12;;;;;;;66.87;2.67;;;23.20;1.00;;;;;;5089306;28;20529;-81
2022/07/15 11:29:49;;;;;;;66.50;4.10;;;23.10;1.00;;;;;;5089679;28;20401;-81
2022/07/15 11:32:17;;;;;;;66.30;2.87;;;23.40;1.00;;;;;;5088311;28;20404;-80
2022/07/15 11:34:46;;;;;;;66.70;2.67;;;23.90;1.00;;;;;;5089747;28;20423;-81
2022/07/15 11:37:18;;;;;;;66.27;2.60;;;24.20;1.00;;;;;;5088347;28;20422;-81
2022/07/15 11:39:48;;;;;;;66.17;2.23;;;24.70;1.00;;;;;;5088656;28;20421;-81
2022/07/15 11:45:08;;;;;;;67.60;2.20;;;25.10;1.00;;;;;;5088869;28;20402;-80
2022/07/15 11:47:35;;;;;;;67.53;2.03;;;25.70;1.00;;;;;;5083806;28;20471;-80
2022/07/15 11:50:03;;;;;;;65.87;1.87;;;26.10;1.00;;;;;;5084039;28;20415;-81
2022/07/15 11:52:29;;;;;;;66.40;1.80;;;25.80;1.00;;;;;;5087002;28;20415;-81
2022/07/15 11:54:56;;;;;;;65.77;1.70;;;25.20;1.00;;;;;;5085673;28;20401;-80
2022/07/15 11:57:22;;;;;;;66.27;1.80;;;24.70;1.00;;;;;;5084937;28;20197;-80
2022/07/15 11:59:56;;;;;;;65.77;1.80;;;24.50;1.00;;;;;;5084560;28;20416;-80
2022/07/15 12:02:26;;;;;;;67.07;1.90;;;24.20;1.00;;;;;;5086569;28;20785;-81
2022/07/15 12:05:01;;;;;;;66.10;2.10;;;24.10;1.00;;;;;;5090129;28;20397;-81
2022/07/15 12:07:42;;;;;;;66.40;2.03;;;23.90;1.00;;;;;;5089864;28;20882;-80
2022/07/15 12:10:09;;;;;;;68.50;2.23;;;23.90;1.00;;;;;;5089592;28;20405;-80
2022/07/15 12:12:39;;;;;;;65.77;1.93;;;24.10;1.00;;;;;;5091415;28;20407;-81
2022/07/15 12:15:05;;;;;;;65.97;1.83;;;24.50;1.00;;;;;;5091477;28;20939;-82
2022/07/15 12:17:31;;;;;;;66.40;2.00;;;24.80;1.00;;;;;;5092138;28;20428;-82
2022/07/15 12:20:00;;;;;;;67.50;1.93;;;25.20;1.00;;;;;;5090432;28;20424;-82
2022/07/15 12:22:26;;;;;;;67.13;2.07;;;25.10;1.00;;;;;;5091582;28;20176;-82
2022/07/15 12:24:52;;;;;;;65.30;1.50;;;25.50;1.00;;;;;;5091159;28;20436;-82
2022/07/15 12:27:31;;;;;;;67.87;2.30;;;25.60;1.00;;;;;;5090434;28;20202;-81
2022/07/15 12:30:08;;;;;;;67.60;2.30;;;25.80;1.00;;;;;;5090970;28;20385;-81
2022/07/15 12:32:34;;;;;;;67.40;2.90;;;26.00;1.00;;;;;;5090551;28;20400;-81
2022/07/15 12:35:03;;;;;;;67.30;2.23;;;26.00;1.00;;;;;;5087299;28;20468;-82
2022/07/15 12:37:34;;;;;;;66.37;2.10;;;25.80;1.00;;;;;;5089314;28;20426;-81
2022/07/15 12:40:06;;;;;;;67.37;2.40;;;25.80;1.00;;;;;;5090177;28;20420;-81
2022/07/15 12:42:44;;;;;;;67.30;2.23;;;26.10;1.00;;;;;;5088768;28;20421;-81
2022/07/15 12:45:24;;;;;;;68.57;2.53;;;26.30;1.00;;;;;;5088519;28;20387;-81
2022/07/15 12:48:07;;;;;;;66.10;3.20;;;26.20;1.00;;;;;;5088587;28;20452;-81
2022/07/15 12:50:57;;;;;;;65.87;2.60;;;26.20;1.00;;;;;;5089057;28;20408;-81
2022/07/15 12:53:29;;;;;;;66.57;2.30;;;26.30;1.00;;;;;;5088817;28;20375;-81
2022/07/15 12:56:00;;;;;;;65.97;1.80;;;26.30;1.00;;;;;;5088321;28;20390;-81
2022/07/15 12:58:28;;;;;;;65.87;2.60;;;26.30;1.00;;;;;;5086981;28;20421;-81